createdAt,value
2023-07-12T00:01:16.268Z,726.90
2023-07-12T00:03:45.886Z,740.80
2023-07-12T00:06:15.495Z,745.40
2023-07-12T00:08:44.414Z,738.17
2023-07-12T00:11:17.708Z,741.63
2023-07-12T00:13:46.065Z,734.17
2023-07-12T00:16:20.989Z,726.40
2023-07-12T00:18:50.501Z,728.07
2023-07-12T00:21:23.903Z,732.43
2023-07-12T00:23:52.172Z,721.70
2023-07-12T00:26:23.874Z,718.67
2023-07-12T00:28:51.895Z,726.03
2023-07-12T00:31:20.011Z,722.83
2023-07-12T00:33:48.161Z,721.23
2023-07-12T00:36:20.880Z,727.00
2023-07-12T00:38:49.477Z,728.53
2023-07-12T00:41:25.219Z,710.00
2023-07-12T00:43:58.491Z,721.40
2023-07-12T00:46:32.052Z,727.60
2023-07-12T00:49:01.123Z,721.83
2023-07-12T00:51:45.277Z,718.63
2023-07-12T00:54:15.555Z,707.33
2023-07-12T00:56:43.929Z,717.33
2023-07-12T00:59:20.049Z,715.27
2023-07-12T01:01:51.006Z,719.63
2023-07-12T01:04:23.664Z,712.63
2023-07-12T01:06:53.604Z,712.53
2023-07-12T01:09:23.484Z,684.33
2023-07-12T01:11:52.559Z,713.53
2023-07-12T01:14:21.295Z,706.77
2023-07-12T01:16:53.425Z,708.80
2023-07-12T01:19:21.506Z,701.00
2023-07-12T01:21:54.355Z,709.53
2023-07-12T01:24:24.097Z,693.13
2023-07-12T01:26:54.997Z,714.27
2023-07-12T01:29:23.180Z,700.70
2023-07-12T01:31:51.842Z,698.87
2023-07-12T01:34:20.870Z,694.63
2023-07-12T01:36:50.404Z,699.07
2023-07-12T01:39:18.434Z,697.70
2023-07-12T01:41:46.450Z,700.33
2023-07-12T01:44:14.467Z,706.43
2023-07-12T01:46:42.505Z,714.77
2023-07-12T01:49:10.588Z,702.07
2023-07-12T01:51:38.751Z,708.30
2023-07-12T01:54:08.162Z,699.27
2023-07-12T01:56:36.151Z,688.17
2023-07-12T01:59:04.261Z,690.93
2023-07-12T02:01:32.311Z,698.03
2023-07-12T02:04:00.329Z,690.87
2023-07-12T02:06:28.436Z,697.27
2023-07-12T02:08:56.445Z,675.83
2023-07-12T02:11:28.082Z,689.63
2023-07-12T02:13:56.077Z,693.43
2023-07-12T02:16:24.339Z,690.93
2023-07-12T02:18:52.583Z,687.90
2023-07-12T02:21:20.651Z,691.97
2023-07-12T02:23:48.644Z,691.23
2023-07-12T02:26:16.719Z,703.00
2023-07-12T02:28:46.201Z,673.20
2023-07-12T02:31:20.667Z,679.30
2023-07-12T02:33:48.991Z,679.87
2023-07-12T02:36:17.073Z,686.40
2023-07-12T02:38:45.229Z,691.60
2023-07-12T02:41:13.247Z,672.77
2023-07-12T02:43:41.311Z,663.53
2023-07-12T02:46:10.865Z,695.67
2023-07-12T02:48:40.423Z,685.20
2023-07-12T02:51:08.757Z,689.27
2023-07-12T02:53:39.032Z,690.87
2023-07-12T02:56:08.981Z,686.20
2023-07-12T02:58:37.037Z,673.93
2023-07-12T03:01:05.340Z,670.77
2023-07-12T03:03:34.917Z,679.43
2023-07-12T03:06:07.563Z,687.33
2023-07-12T03:08:35.659Z,664.07
2023-07-12T03:11:04.374Z,677.33
2023-07-12T03:13:32.567Z,692.83
2023-07-12T03:16:00.865Z,680.90
2023-07-12T03:18:29.017Z,686.00
2023-07-12T03:21:01.919Z,679.17
2023-07-12T03:23:31.130Z,675.93
2023-07-12T03:25:59.765Z,663.73
2023-07-12T03:28:28.393Z,688.43
2023-07-12T03:31:00.257Z,695.23
2023-07-12T03:33:28.725Z,686.40
2023-07-12T03:35:56.800Z,678.23
2023-07-12T03:38:26.991Z,652.23
2023-07-12T03:40:58.367Z,672.10
2023-07-12T03:43:26.694Z,668.27
2023-07-12T03:45:55.005Z,666.60
2023-07-12T03:48:24.394Z,641.03
2023-07-12T03:50:54.094Z,673.03
2023-07-12T03:53:22.103Z,668.20
2023-07-12T03:55:51.706Z,679.50
2023-07-12T03:58:22.577Z,656.20
2023-07-12T04:00:52.812Z,657.00
2023-07-12T04:03:21.851Z,671.40
2023-07-12T04:05:52.688Z,666.93
2023-07-12T04:08:21.818Z,662.70
2023-07-12T04:10:54.354Z,676.53
2023-07-12T04:13:23.369Z,676.50
2023-07-12T04:15:54.221Z,651.83
2023-07-12T04:18:23.001Z,674.10
2023-07-12T04:20:51.224Z,683.87
2023-07-12T04:23:19.254Z,669.07
2023-07-12T04:25:47.536Z,696.77
2023-07-12T04:28:16.929Z,678.93
2023-07-12T04:30:45.139Z,659.40
2023-07-12T04:33:13.223Z,682.30
2023-07-12T04:35:41.358Z,684.13
2023-07-12T04:38:09.414Z,681.50
2023-07-12T04:40:38.617Z,680.30
2023-07-12T04:43:06.656Z,695.70
2023-07-12T04:45:36.085Z,695.27
2023-07-12T04:48:04.326Z,696.93
2023-07-12T04:50:34.488Z,688.63
2023-07-12T04:53:02.539Z,690.77
2023-07-12T04:55:31.138Z,704.83
2023-07-12T04:57:59.213Z,700.97
2023-07-12T05:00:27.600Z,722.70
2023-07-12T05:02:57.065Z,717.37
2023-07-12T05:05:25.227Z,715.77
2023-07-12T05:07:53.312Z,716.37
2023-07-12T05:10:21.396Z,695.93
2023-07-12T05:12:49.573Z,733.83
2023-07-12T05:15:18.279Z,718.60
2023-07-12T05:17:46.658Z,720.60
2023-07-12T05:20:16.511Z,722.87
2023-07-12T05:22:44.781Z,744.22
2023-07-12T05:25:13.114Z,740.77
2023-07-12T05:27:41.527Z,735.80
2023-07-12T05:30:12.243Z,742.17
2023-07-12T05:32:41.949Z,736.67
2023-07-12T05:35:10.867Z,753.42
2023-07-12T05:37:40.699Z,742.47
2023-07-12T05:40:11.940Z,743.10
2023-07-12T05:42:42.022Z,749.08
2023-07-12T05:45:11.862Z,748.07
2023-07-12T05:47:40.120Z,752.40
2023-07-12T05:50:12.430Z,759.20
2023-07-12T05:52:41.893Z,754.90
2023-07-12T05:55:13.255Z,756.17
2023-07-12T05:57:41.312Z,761.00
2023-07-12T06:00:11.646Z,759.33
2023-07-12T06:02:40.058Z,757.47
2023-07-12T06:05:09.145Z,762.15
2023-07-12T06:07:37.183Z,767.40
2023-07-12T06:10:07.620Z,760.67
2023-07-12T06:12:36.028Z,746.03
2023-07-12T06:15:04.218Z,763.40
2023-07-12T06:17:32.237Z,772.00
2023-07-12T06:20:00.277Z,766.37
2023-07-12T06:22:28.314Z,766.40
2023-07-12T06:24:56.323Z,764.47
2023-07-12T06:27:25.729Z,759.37
2023-07-12T06:29:53.864Z,765.30
2023-07-12T06:32:21.884Z,756.20
2023-07-12T06:34:50.055Z,750.45
2023-07-12T06:37:18.187Z,764.57
2023-07-12T06:39:46.215Z,769.27
2023-07-12T06:42:14.259Z,754.27
2023-07-12T06:44:43.627Z,760.47
2023-07-12T06:47:11.890Z,774.20
2023-07-12T06:49:39.956Z,772.00
2023-07-12T06:52:08.639Z,786.33
2023-07-12T06:54:36.781Z,791.90
2023-07-12T06:57:05.201Z,796.60
2023-07-12T06:59:33.269Z,788.90
2023-07-12T07:02:02.779Z,809.63
2023-07-12T07:04:30.857Z,820.70
2023-07-12T07:06:58.850Z,822.63
2023-07-12T07:09:26.867Z,829.85
2023-07-12T07:11:54.918Z,831.92
2023-07-12T07:14:22.992Z,842.47
2023-07-12T07:16:51.128Z,837.17
2023-07-12T07:19:20.603Z,856.33
2023-07-12T07:21:49.997Z,852.33
2023-07-12T07:24:18.462Z,853.58
2023-07-12T07:26:46.552Z,852.20
2023-07-12T07:29:14.583Z,849.47
2023-07-12T07:31:43.040Z,859.38
2023-07-12T07:34:11.254Z,855.20
2023-07-12T07:36:40.712Z,846.20
2023-07-12T07:39:08.927Z,851.22
2023-07-12T07:41:36.991Z,852.47
2023-07-12T07:44:05.313Z,853.58
2023-07-12T07:46:33.508Z,840.85
2023-07-12T07:49:01.910Z,848.60
2023-07-12T07:51:29.963Z,839.00
2023-07-12T07:53:59.508Z,851.95
2023-07-12T07:56:28.249Z,842.60
2023-07-12T07:58:56.261Z,835.08
2023-07-12T08:01:24.298Z,837.55
2023-07-12T08:03:52.628Z,838.47
2023-07-12T08:06:20.885Z,814.58
2023-07-12T08:08:48.966Z,847.65
2023-07-12T08:11:18.383Z,830.92
2023-07-12T08:13:46.410Z,833.40
2023-07-12T08:16:14.878Z,820.60
2023-07-12T08:18:43.696Z,821.40
2023-07-12T08:21:14.295Z,826.97
2023-07-12T08:23:42.296Z,807.30
2023-07-12T08:26:10.446Z,806.60
2023-07-12T08:28:39.886Z,807.78
2023-07-12T08:31:08.186Z,789.67
2023-07-12T08:33:36.587Z,792.87
2023-07-12T08:36:05.333Z,807.50
2023-07-12T08:38:35.257Z,788.47
2023-07-12T08:41:14.637Z,781.03
2023-07-12T08:43:44.584Z,795.87
2023-07-12T08:46:17.885Z,788.70
2023-07-12T08:48:46.460Z,791.75
2023-07-12T08:51:17.694Z,802.40
2023-07-12T08:53:47.269Z,779.58
2023-07-12T08:56:19.987Z,795.80
2023-07-12T08:58:51.730Z,780.75
2023-07-12T09:01:43.785Z,792.72
2023-07-12T09:04:24.719Z,803.47
2023-07-12T09:06:54.686Z,797.15
2023-07-12T09:09:23.309Z,784.65
2023-07-12T09:11:52.166Z,783.83
2023-07-12T09:14:25.191Z,784.28
2023-07-12T09:16:58.286Z,782.63
2023-07-12T09:19:30.752Z,789.72
2023-07-12T09:22:02.652Z,781.95
2023-07-12T09:24:33.011Z,788.07
2023-07-12T09:27:06.216Z,762.90
2023-07-12T09:29:35.651Z,777.38
2023-07-12T09:32:10.063Z,787.10
2023-07-12T09:34:40.762Z,762.57
2023-07-12T09:37:16.640Z,783.40
2023-07-12T09:39:57.252Z,766.00
2023-07-12T09:42:25.493Z,783.60
2023-07-12T09:44:55.824Z,769.73
2023-07-12T09:47:42.289Z,776.53
2023-07-12T09:50:25.032Z,754.43
2023-07-12T09:53:01.184Z,767.00
2023-07-12T09:55:41.476Z,774.08
2023-07-12T09:58:18.253Z,788.92
2023-07-12T10:00:56.556Z,796.35
2023-07-12T10:03:28.332Z,804.47
2023-07-12T10:06:00.473Z,814.17
2023-07-12T10:08:40.848Z,809.90
2023-07-12T10:11:16.285Z,816.83
2023-07-12T10:13:47.149Z,817.38
2023-07-12T10:16:21.804Z,823.25
2023-07-12T10:18:51.877Z,841.60
2023-07-12T10:21:22.127Z,844.08
2023-07-12T10:23:53.563Z,841.00
2023-07-12T10:26:21.613Z,844.35
2023-07-12T10:28:55.677Z,858.92
2023-07-12T10:31:35.764Z,855.67
2023-07-12T10:34:18.867Z,874.53
2023-07-12T10:36:49.997Z,861.47
2023-07-12T10:39:18.219Z,853.05
2023-07-12T10:41:49.184Z,849.92
2023-07-12T10:44:21.858Z,864.30
2023-07-12T10:46:55.671Z,856.95
2023-07-12T10:49:42.269Z,863.58
2023-07-12T10:52:21.596Z,878.45
2023-07-12T10:55:20.795Z,858.63
2023-07-12T10:57:50.847Z,846.58
2023-07-12T11:00:26.660Z,856.80
2023-07-12T11:03:21.575Z,851.30
2023-07-12T11:06:01.491Z,849.13
2023-07-12T11:08:42.138Z,847.60
2023-07-12T11:11:50.346Z,854.22
2023-07-12T11:14:46.282Z,824.78
2023-07-12T11:17:17.732Z,838.67
2023-07-12T11:19:51.376Z,837.72
2023-07-12T11:22:22.056Z,846.25
2023-07-12T11:24:57.964Z,862.42
2023-07-12T11:27:31.966Z,864.88
2023-07-12T11:30:24.862Z,855.15
2023-07-12T11:32:59.132Z,856.72
2023-07-12T11:35:43.883Z,855.33
2023-07-12T11:38:17.869Z,851.85
2023-07-12T11:40:47.715Z,846.70
2023-07-12T11:43:38.321Z,853.45
2023-07-12T11:46:15.265Z,853.15
2023-07-12T11:48:47.067Z,866.20
2023-07-12T11:51:20.977Z,860.40
2023-07-12T11:53:58.156Z,859.50
2023-07-12T11:56:26.953Z,841.42
2023-07-12T11:58:56.863Z,843.25
2023-07-12T12:01:25.252Z,849.00
2023-07-12T12:03:54.283Z,849.13
2023-07-12T12:06:25.500Z,850.83
2023-07-12T12:08:56.430Z,855.03
2023-07-12T12:11:30.093Z,856.03
2023-07-12T12:13:59.641Z,840.90
2023-07-12T12:16:30.614Z,842.85
2023-07-12T12:19:01.219Z,844.72
2023-07-12T12:21:31.413Z,843.15
2023-07-12T12:24:16.717Z,825.47
2023-07-12T12:26:45.861Z,837.15
2023-07-12T12:29:19.034Z,846.40
2023-07-12T12:31:56.154Z,865.60
2023-07-12T12:34:27.769Z,873.72
2023-07-12T12:37:01.959Z,877.30
2023-07-12T12:39:31.076Z,871.35
2023-07-12T12:42:01.003Z,883.30
2023-07-12T12:44:31.400Z,882.65
2023-07-12T12:47:05.489Z,879.08
2023-07-12T12:55:01.499Z,887.45
2023-07-12T13:05:28.545Z,868.67
2023-07-12T13:11:13.933Z,862.53
2023-07-12T13:20:57.573Z,893.08
2023-07-12T13:23:37.946Z,884.15
2023-07-12T13:26:15.627Z,889.10
2023-07-12T13:28:43.757Z,883.05
2023-07-12T13:31:13.436Z,884.40
2023-07-12T13:33:41.979Z,877.45
2023-07-12T13:36:30.780Z,877.15
2023-07-12T13:46:52.210Z,859.72
2023-07-12T13:49:21.280Z,849.75
2023-07-12T13:51:49.682Z,855.88
2023-07-12T13:54:21.164Z,856.97
2023-07-12T13:56:49.519Z,866.67
2023-07-12T13:59:19.476Z,861.15
2023-07-12T14:02:51.825Z,852.30
2023-07-12T14:04:39.517Z,865.80
2023-07-12T14:08:08.247Z,856.53
2023-07-12T14:12:44.317Z,855.08
2023-07-12T14:15:18.872Z,868.55
2023-07-12T14:17:47.921Z,861.83
2023-07-12T14:20:16.538Z,862.38
2023-07-12T14:22:45.803Z,866.10
2023-07-12T14:25:20.294Z,855.40
2023-07-12T14:27:49.133Z,858.17
2023-07-12T14:32:50.234Z,858.60
2023-07-12T14:35:21.509Z,868.58
2023-07-12T14:37:50.867Z,875.88
2023-07-12T14:40:21.683Z,858.80
2023-07-12T14:42:50.060Z,881.45
2023-07-12T14:45:20.147Z,868.85
2023-07-12T14:47:48.343Z,872.55
2023-07-12T14:50:18.040Z,876.83
2023-07-12T14:52:47.826Z,881.85
2023-07-12T14:55:18.878Z,887.97
2023-07-12T15:00:21.028Z,898.88
2023-07-12T15:02:53.508Z,907.80
2023-07-12T15:05:22.112Z,900.47
2023-07-12T15:07:51.227Z,899.85
2023-07-12T15:10:20.716Z,898.60
2023-07-12T15:12:55.960Z,915.40
2023-07-12T15:15:27.319Z,915.03
2023-07-12T15:18:01.928Z,907.85
2023-07-12T15:20:30.518Z,920.30
2023-07-12T15:22:58.823Z,923.33
2023-07-12T15:25:28.745Z,919.38
2023-07-12T15:27:59.023Z,933.78
2023-07-12T15:30:29.384Z,935.00
2023-07-12T15:32:59.341Z,930.20
2023-07-12T15:35:30.097Z,943.35
2023-07-12T15:38:00.645Z,948.53
2023-07-12T15:41:04.384Z,950.97
2023-07-12T15:43:37.326Z,950.63
2023-07-12T15:46:07.853Z,947.05
2023-07-12T15:48:36.967Z,964.95
2023-07-12T15:51:10.353Z,972.78
2023-07-12T15:53:38.766Z,959.85
2023-07-12T15:56:07.181Z,971.50
2023-07-12T15:58:37.459Z,984.15
2023-07-12T16:01:07.184Z,967.58
2023-07-12T16:03:38.573Z,987.63
2023-07-12T16:06:09.350Z,981.75
2023-07-12T16:08:38.155Z,987.75
2023-07-12T16:11:18.626Z,973.95
2023-07-12T16:16:21.055Z,959.13
2023-07-12T16:18:49.853Z,956.72
2023-07-12T16:21:22.214Z,951.92
2023-07-12T16:23:52.239Z,954.60
2023-07-12T16:26:23.453Z,945.58
2023-07-12T16:28:53.363Z,945.75
2023-07-12T16:31:32.374Z,950.40
2023-07-12T16:34:01.688Z,951.70
2023-07-12T16:36:32.682Z,957.38
2023-07-12T16:39:01.102Z,964.10
2023-07-12T16:41:32.314Z,949.35
2023-07-12T16:44:03.573Z,946.50
2023-07-12T16:46:31.689Z,956.47
2023-07-12T16:49:00.079Z,970.30
2023-07-12T16:51:45.711Z,978.13
2023-07-12T16:54:13.781Z,972.33
2023-07-12T16:56:41.984Z,987.15
2023-07-12T16:59:11.402Z,973.85
2023-07-12T17:01:40.425Z,977.85
2023-07-12T17:04:11.647Z,981.30
2023-07-12T17:06:40.386Z,999.88
2023-07-12T17:09:20.290Z,993.92
2023-07-12T17:11:49.129Z,999.30
2023-07-12T17:14:18.745Z,1001.88
2023-07-12T17:16:47.848Z,1008.10
2023-07-12T17:19:16.754Z,1012.75
2023-07-12T17:21:44.970Z,1018.70
2023-07-12T17:24:15.314Z,1009.67
2023-07-12T17:26:45.110Z,1005.47
2023-07-12T17:29:14.429Z,1015.38
2023-07-12T17:31:46.862Z,1015.60
2023-07-12T17:34:20.891Z,1014.60
2023-07-12T17:36:49.028Z,1003.08
2023-07-12T17:39:17.780Z,993.25
2023-07-12T17:41:46.171Z,975.67
2023-07-12T17:44:17.679Z,972.83
2023-07-12T17:46:47.280Z,959.83
2023-07-12T17:49:15.772Z,945.15
2023-07-12T17:51:43.988Z,954.78
2023-07-12T17:54:13.328Z,957.88
2023-07-12T17:56:41.941Z,957.80
2023-07-12T17:59:10.760Z,973.92
2023-07-12T18:01:39.382Z,983.28
2023-07-12T18:04:13.677Z,982.55
2023-07-12T18:06:42.109Z,976.85
2023-07-12T18:09:10.152Z,971.50
2023-07-12T18:11:41.121Z,982.92
2023-07-12T18:14:16.847Z,981.70
2023-07-12T18:22:31.489Z,968.85
2023-07-12T18:24:59.782Z,974.65
2023-07-12T18:27:27.778Z,971.75
2023-07-12T18:29:56.783Z,983.25
2023-07-12T18:32:25.849Z,977.67
2023-07-12T18:34:55.277Z,979.28
2023-07-12T18:37:24.070Z,956.88
2023-07-12T18:39:54.027Z,958.10
2023-07-12T18:42:24.926Z,952.47
2023-07-12T18:44:53.776Z,936.90
2023-07-12T18:47:23.090Z,925.35
2023-07-12T18:49:52.466Z,904.60
2023-07-12T18:52:24.048Z,890.33
2023-07-12T18:54:52.512Z,880.03
2023-07-12T18:57:21.527Z,870.90
2023-07-12T18:59:50.828Z,884.17
2023-07-12T19:02:21.316Z,875.95
2023-07-12T19:04:50.128Z,846.58
2023-07-12T19:07:24.065Z,862.05
2023-07-12T19:09:52.897Z,853.30
2023-07-12T19:12:22.811Z,836.97
2023-07-12T19:14:53.937Z,830.20
2023-07-12T19:17:22.253Z,828.13
2023-07-12T19:19:50.743Z,822.05
2023-07-12T19:22:22.338Z,814.97
2023-07-12T19:24:53.681Z,821.17
2023-07-12T19:27:38.293Z,821.38
2023-07-12T19:30:14.055Z,804.73
2023-07-12T19:32:42.210Z,797.27
2023-07-12T19:35:20.704Z,805.37
2023-07-12T19:37:51.106Z,800.30
2023-07-12T19:40:19.859Z,790.23
2023-07-12T19:42:49.344Z,789.67
2023-07-12T19:45:20.029Z,784.37
2023-07-12T19:47:48.122Z,796.03
2023-07-12T19:50:16.604Z,797.57
2023-07-12T19:52:44.727Z,773.53
2023-07-12T19:55:21.961Z,787.78
2023-07-12T19:57:50.123Z,773.00
2023-07-12T20:00:18.553Z,783.20
2023-07-12T20:02:46.838Z,767.97
2023-07-12T20:05:15.310Z,763.77
2023-07-12T20:07:45.888Z,763.47
2023-07-12T20:10:19.131Z,765.93
2023-07-12T20:12:47.246Z,751.27
2023-07-12T20:15:15.675Z,767.47
2023-07-12T20:17:44.066Z,739.37
2023-07-12T20:20:16.062Z,752.67
2023-07-12T20:22:44.308Z,754.07
2023-07-12T20:25:12.861Z,743.63
2023-07-12T20:27:42.265Z,739.83
2023-07-12T20:30:11.810Z,734.77
2023-07-12T20:32:39.910Z,722.57
2023-07-12T20:35:08.232Z,714.67
2023-07-12T20:37:36.499Z,724.67
2023-07-12T20:40:07.258Z,734.17
2023-07-12T20:42:37.501Z,705.27
2023-07-12T20:45:11.630Z,712.93
2023-07-12T20:47:40.956Z,701.37
2023-07-12T20:50:09.727Z,693.77
2023-07-12T20:52:37.973Z,696.90
2023-07-12T20:55:07.687Z,694.40
2023-07-12T20:57:36.681Z,701.70
2023-07-12T21:00:11.605Z,681.30
2023-07-12T21:02:39.880Z,673.23
2023-07-12T21:05:09.401Z,656.87
2023-07-12T21:07:38.707Z,673.67
2023-07-12T21:10:09.636Z,656.83
2023-07-12T21:12:37.663Z,671.37
2023-07-12T21:15:08.118Z,660.10
2023-07-12T21:17:36.595Z,659.10
2023-07-12T21:20:05.999Z,647.90
2023-07-12T21:22:34.188Z,652.50
2023-07-12T21:25:02.589Z,638.50
2023-07-12T21:27:32.474Z,625.30
2023-07-12T21:30:00.641Z,637.63
2023-07-12T21:32:30.062Z,645.13
2023-07-12T21:34:58.318Z,632.03
2023-07-12T21:37:26.299Z,640.77
2023-07-12T21:39:54.304Z,608.37
2023-07-12T21:42:22.320Z,623.87
2023-07-12T21:44:50.989Z,612.13
2023-07-12T21:47:19.160Z,620.93
2023-07-12T21:49:48.654Z,615.13
2023-07-12T21:52:16.667Z,613.63
2023-07-12T21:54:44.841Z,626.60
2023-07-12T21:57:12.947Z,604.43
2023-07-12T21:59:41.164Z,604.13
2023-07-12T22:02:09.249Z,602.43
2023-07-12T22:04:37.229Z,606.00
2023-07-12T22:07:07.079Z,594.40
2023-07-12T22:09:35.406Z,576.17
2023-07-12T22:12:03.654Z,587.07
2023-07-12T22:14:33.338Z,595.47
2023-07-12T22:17:01.378Z,606.70
2023-07-12T22:19:29.428Z,593.77
2023-07-12T22:22:10.961Z,610.60
2023-07-12T22:24:41.439Z,594.67
2023-07-12T22:27:10.825Z,589.97
2023-07-12T22:29:39.923Z,589.70
2023-07-12T22:32:09.299Z,587.60
2023-07-12T22:34:37.374Z,595.60
2023-07-12T22:37:05.838Z,578.13
2023-07-12T22:39:33.817Z,577.50
2023-07-12T22:42:03.181Z,567.20
2023-07-12T22:44:31.281Z,572.03
2023-07-12T22:46:59.327Z,584.33
2023-07-12T22:49:27.465Z,569.63
2023-07-12T22:51:55.537Z,578.90
2023-07-12T22:54:23.644Z,579.83
2023-07-12T22:56:51.919Z,566.67
2023-07-12T22:59:21.448Z,545.60
2023-07-12T23:01:49.534Z,566.27
2023-07-12T23:04:17.570Z,582.20
2023-07-12T23:06:46.789Z,571.17
2023-07-12T23:09:14.877Z,563.07
2023-07-12T23:11:44.835Z,569.70
2023-07-12T23:14:12.894Z,554.43
2023-07-12T23:16:42.855Z,557.70
2023-07-12T23:19:11.466Z,560.63
2023-07-12T23:21:39.530Z,555.03
2023-07-12T23:24:07.973Z,574.60
2023-07-12T23:26:36.022Z,557.73
2023-07-12T23:29:04.061Z,554.00
2023-07-12T23:31:34.369Z,547.23
2023-07-12T23:34:04.120Z,561.60
2023-07-12T23:36:33.141Z,546.97
2023-07-12T23:39:06.763Z,559.97
2023-07-12T23:41:35.257Z,557.90
2023-07-12T23:44:04.017Z,543.83
2023-07-12T23:46:32.739Z,557.50
2023-07-12T23:49:00.895Z,552.77
2023-07-12T23:51:30.352Z,556.67
2023-07-12T23:53:58.392Z,553.17
2023-07-12T23:56:26.413Z,564.57
2023-07-12T23:58:54.415Z,548.47
